createdAt,value
2022-07-29T00:01:44.161Z,102308.94
2022-07-29T00:04:13.160Z,102315.97
2022-07-29T00:06:41.118Z,102315.13
2022-07-29T00:09:08.443Z,102304.56
2022-07-29T00:11:35.629Z,102294.09
2022-07-29T00:14:03.157Z,102309.88
2022-07-29T00:16:30.261Z,102307.28
2022-07-29T00:19:00.655Z,102303.78
2022-07-29T00:21:29.433Z,102294.25
2022-07-29T00:23:56.423Z,102301.22
2022-07-29T00:26:24.100Z,102287.22
2022-07-29T00:28:51.085Z,102284.59
2022-07-29T00:31:18.136Z,102288.09
2022-07-29T00:33:45.235Z,102282.91
2022-07-29T00:36:12.153Z,102282.91
2022-07-29T00:38:42.522Z,102282.03
2022-07-29T00:41:09.485Z,102276.84
2022-07-29T00:43:36.453Z,102277.72
2022-07-29T00:46:03.692Z,102295.34
2022-07-29T00:48:30.696Z,102289.22
2022-07-29T00:51:00.651Z,102283.91
2022-07-29T00:53:27.919Z,102292.75
2022-07-29T00:55:56.250Z,102276.09
2022-07-29T00:58:24.862Z,102293.69
2022-07-29T01:00:52.497Z,102296.34
2022-07-29T01:03:20.379Z,102291.94
2022-07-29T01:05:50.117Z,102288.47
2022-07-29T01:08:21.520Z,102283.22
2022-07-29T01:10:50.210Z,102292.88
2022-07-29T01:13:18.522Z,102286.72
2022-07-29T01:15:54.833Z,102292.88
2022-07-29T01:18:38.871Z,102285.84
2022-07-29T01:21:54.404Z,102290.34
2022-07-29T01:24:39.524Z,102286.00
2022-07-29T01:27:44.766Z,102285.13
2022-07-29T01:30:14.754Z,102291.31
2022-07-29T01:32:49.642Z,102274.69
2022-07-29T01:35:31.900Z,102281.72
2022-07-29T01:38:18.482Z,102284.38
2022-07-29T01:41:15.543Z,102286.16
2022-07-29T01:43:58.374Z,102288.94
2022-07-29T01:46:45.181Z,102276.75
2022-07-29T01:49:21.237Z,102294.34
2022-07-29T01:51:55.111Z,102289.97
2022-07-29T01:54:46.692Z,102290.88
2022-07-29T01:57:20.733Z,102277.78
2022-07-29T01:59:49.959Z,102274.22
2022-07-29T02:02:19.374Z,102267.25
2022-07-29T02:04:50.613Z,102277.81
2022-07-29T02:07:22.724Z,102265.53
2022-07-29T02:09:52.521Z,102269.03
2022-07-29T02:12:21.447Z,102269.91
2022-07-29T02:14:54.999Z,102266.47
2022-07-29T02:17:53.886Z,102262.09
2022-07-29T02:20:23.191Z,102259.47
2022-07-29T02:22:52.713Z,102261.25
2022-07-29T02:25:22.978Z,102266.59
2022-07-29T02:27:53.193Z,102252.44
2022-07-29T02:30:23.105Z,102263.84
2022-07-29T02:32:52.666Z,102265.59
2022-07-29T02:35:22.199Z,102257.69
2022-07-29T02:38:10.523Z,102257.69
2022-07-29T02:40:42.942Z,102254.19
2022-07-29T02:43:11.866Z,102246.28
2022-07-29T02:45:39.705Z,102258.56
2022-07-29T02:48:16.271Z,102241.06
2022-07-29T02:50:52.916Z,102250.66
2022-07-29T02:53:26.084Z,102238.44
2022-07-29T02:55:59.874Z,102247.22
2022-07-29T02:58:37.947Z,102244.56
2022-07-29T03:01:19.344Z,102255.16
2022-07-29T03:03:53.983Z,102248.16
2022-07-29T03:06:37.367Z,102248.22
2022-07-29T03:09:12.986Z,102250.91
2022-07-29T03:11:49.452Z,102242.13
2022-07-29T03:14:20.521Z,102257.06
2022-07-29T03:16:49.425Z,102250.91
2022-07-29T03:19:17.558Z,102251.75
2022-07-29T03:21:44.616Z,102243.81
2022-07-29T03:24:28.306Z,102248.16
2022-07-29T03:26:57.531Z,102242.09
2022-07-29T03:29:32.914Z,102250.78
2022-07-29T03:32:04.294Z,102256.06
2022-07-29T03:34:34.650Z,102256.91
2022-07-29T03:37:01.663Z,102244.59
2022-07-29T03:39:36.158Z,102253.38
2022-07-29T03:42:07.717Z,102248.03
2022-07-29T03:44:36.013Z,102243.56
2022-07-29T03:47:06.665Z,102247.00
2022-07-29T03:49:37.540Z,102237.25
2022-07-29T03:52:06.172Z,102238.91
2022-07-29T03:54:33.644Z,102241.34
2022-07-29T03:57:04.420Z,102234.84
2022-07-29T03:59:35.287Z,102236.22
2022-07-29T04:02:05.346Z,102242.00
2022-07-29T04:04:37.219Z,102224.97
2022-07-29T04:07:04.880Z,102236.03
2022-07-29T04:09:33.054Z,102238.28
2022-07-29T04:12:03.050Z,102227.38
2022-07-29T04:14:33.870Z,102238.16
2022-07-29T04:17:02.415Z,102241.94
2022-07-29T04:19:29.483Z,102233.47
2022-07-29T04:21:57.037Z,102239.28
2022-07-29T04:24:24.093Z,102237.50
2022-07-29T04:26:51.147Z,102235.94
2022-07-29T04:29:18.271Z,102241.66
2022-07-29T04:31:45.806Z,102241.94
2022-07-29T04:34:13.898Z,102223.78
2022-07-29T04:36:41.043Z,102237.97
2022-07-29T04:39:08.154Z,102235.44
2022-07-29T04:41:35.116Z,102233.78
2022-07-29T04:44:07.186Z,102233.78
2022-07-29T04:46:35.954Z,102239.09
2022-07-29T04:49:04.243Z,102229.34
2022-07-29T04:51:31.823Z,102222.28
2022-07-29T04:53:58.926Z,102223.00
2022-07-29T04:56:26.003Z,102223.47
2022-07-29T04:58:53.248Z,102220.47
2022-07-29T05:01:20.888Z,102220.09
2022-07-29T05:03:48.132Z,102220.78
2022-07-29T05:06:15.253Z,102220.72
2022-07-29T05:08:42.337Z,102226.00
2022-07-29T05:11:11.657Z,102219.94
2022-07-29T05:13:45.978Z,102222.81
2022-07-29T05:16:14.912Z,102209.88
2022-07-29T05:18:43.086Z,102214.34
2022-07-29T05:21:10.358Z,102220.72
2022-07-29T05:23:37.469Z,102229.53
2022-07-29T05:26:04.443Z,102218.88
2022-07-29T05:28:35.939Z,102223.97
2022-07-29T05:31:03.253Z,102220.28
2022-07-29T05:33:35.545Z,102226.38
2022-07-29T05:36:07.754Z,102208.00
2022-07-29T05:38:36.714Z,102233.06
2022-07-29T05:41:07.558Z,102231.88
2022-07-29T05:43:34.645Z,102224.47
2022-07-29T05:46:01.952Z,102230.22
2022-07-29T05:48:29.201Z,102231.56
2022-07-29T05:50:56.373Z,102230.38
2022-07-29T05:53:23.740Z,102232.13
2022-07-29T05:55:52.640Z,102233.03
2022-07-29T05:58:19.648Z,102229.53
2022-07-29T06:00:47.119Z,102225.09
2022-07-29T06:03:14.319Z,102224.97
2022-07-29T06:05:41.352Z,102226.56
2022-07-29T06:08:08.606Z,102225.44
2022-07-29T06:10:37.028Z,102222.72
2022-07-29T06:13:04.334Z,102212.16
2022-07-29T06:15:31.512Z,102216.38
2022-07-29T06:17:59.072Z,102222.44
2022-07-29T06:20:32.966Z,102223.00
2022-07-29T06:23:01.222Z,102220.13
2022-07-29T06:25:35.607Z,102226.31
2022-07-29T06:28:02.620Z,102214.78
2022-07-29T06:30:30.474Z,102218.19
2022-07-29T06:32:57.800Z,102222.63
2022-07-29T06:35:38.989Z,102215.59
2022-07-29T06:38:31.056Z,102218.31
2022-07-29T06:41:11.092Z,102215.41
2022-07-29T06:43:52.449Z,102170.47
2022-07-29T06:46:23.735Z,102210.72
2022-07-29T06:48:53.113Z,102211.19
2022-07-29T06:51:22.575Z,102203.66
2022-07-29T06:53:59.794Z,102199.63
2022-07-29T06:56:39.037Z,102205.53
2022-07-29T06:59:09.310Z,102197.16
2022-07-29T07:01:39.109Z,102210.91
2022-07-29T07:04:06.963Z,102204.38
2022-07-29T07:06:34.105Z,102203.16
2022-07-29T07:09:01.251Z,102189.69
2022-07-29T07:11:28.490Z,102197.28
2022-07-29T07:13:59.287Z,102203.44
2022-07-29T07:16:29.532Z,102201.69
2022-07-29T07:18:56.545Z,102203.13
2022-07-29T07:21:24.863Z,102202.81
2022-07-29T07:23:51.843Z,102206.81
2022-07-29T07:26:18.791Z,102194.03
2022-07-29T07:28:45.911Z,102199.56
2022-07-29T07:31:13.401Z,102198.25
2022-07-29T07:33:40.748Z,102184.88
2022-07-29T07:36:07.894Z,102198.00
2022-07-29T07:38:35.283Z,102190.91
2022-07-29T07:41:03.405Z,102175.19
2022-07-29T07:43:30.492Z,102187.25
2022-07-29T07:45:59.173Z,102180.94
2022-07-29T07:48:26.275Z,102187.91
2022-07-29T07:50:53.302Z,102178.00
2022-07-29T07:53:20.469Z,102178.59
2022-07-29T07:58:36.246Z,102180.09
2022-07-29T08:01:03.690Z,102179.75
2022-07-29T08:03:30.774Z,102177.69
2022-07-29T08:05:58.164Z,102168.50
2022-07-29T08:08:25.842Z,102176.34
2022-07-29T08:10:53.003Z,102170.88
2022-07-29T08:13:23.934Z,102165.34
2022-07-29T08:16:11.931Z,102168.69
2022-07-29T08:18:40.903Z,102169.53
2022-07-29T08:21:07.930Z,102158.19
2022-07-29T08:23:50.590Z,102163.75
2022-07-29T08:26:23.518Z,102163.94
2022-07-29T08:28:51.791Z,102171.00
2022-07-29T08:31:19.217Z,102154.22
2022-07-29T08:33:46.496Z,102155.50
2022-07-29T08:36:14.304Z,102166.00
2022-07-29T08:38:41.392Z,102166.88
2022-07-29T08:41:08.706Z,102166.88
2022-07-29T08:43:38.358Z,102163.34
2022-07-29T08:46:05.748Z,102160.59
2022-07-29T08:48:33.518Z,102163.16
2022-07-29T08:51:02.487Z,102154.03
2022-07-29T08:53:32.889Z,102164.19
2022-07-29T08:56:00.761Z,102161.53
2022-07-29T08:58:33.124Z,102157.97
2022-07-29T09:01:04.949Z,102148.47
2022-07-29T09:03:38.279Z,102146.84
2022-07-29T09:06:06.433Z,102156.72
2022-07-29T09:08:34.354Z,102152.41
2022-07-29T09:11:05.751Z,102153.69
2022-07-29T09:13:32.865Z,102140.78
2022-07-29T09:16:00.371Z,102146.94
2022-07-29T09:18:46.974Z,102147.00
2022-07-29T09:21:35.658Z,102144.53
2022-07-29T09:24:13.013Z,102150.06
2022-07-29T09:26:44.555Z,102154.63
2022-07-29T09:29:24.811Z,102145.81
2022-07-29T09:31:55.211Z,102153.69
2022-07-29T09:34:26.285Z,102138.44
2022-07-29T09:36:56.208Z,102137.44
2022-07-29T09:39:31.343Z,102144.53
2022-07-29T09:42:02.602Z,102137.38
2022-07-29T09:44:46.529Z,102136.44
2022-07-29T09:47:13.846Z,102148.25
2022-07-29T09:49:59.168Z,102141.53
2022-07-29T09:52:31.254Z,102133.97
2022-07-29T09:55:10.082Z,102135.69
2022-07-29T09:57:41.365Z,102131.28
2022-07-29T10:00:14.166Z,102146.31
2022-07-29T10:02:46.977Z,102136.41
2022-07-29T10:05:26.025Z,102131.81
2022-07-29T10:07:58.807Z,102129.88
2022-07-29T10:10:29.427Z,102128.16
2022-07-29T10:13:06.185Z,102123.78
2022-07-29T10:15:41.741Z,102127.06
2022-07-29T10:18:10.328Z,102122.25
2022-07-29T10:20:38.703Z,102122.84
2022-07-29T10:23:06.764Z,102125.28
2022-07-29T10:25:34.510Z,102112.81
2022-07-29T10:28:01.583Z,102119.38
2022-07-29T10:30:28.974Z,102122.69
2022-07-29T10:33:06.093Z,102116.53
2022-07-29T10:36:06.737Z,102114.31
2022-07-29T10:38:50.917Z,102109.94
2022-07-29T10:41:59.925Z,102116.91
2022-07-29T10:44:28.659Z,102102.94
2022-07-29T10:46:56.445Z,102106.91
2022-07-29T10:49:31.040Z,102092.56
2022-07-29T10:52:08.181Z,102102.78
2022-07-29T10:54:39.689Z,102105.22
2022-07-29T10:57:21.769Z,102102.38
2022-07-29T11:00:11.681Z,102104.22
2022-07-29T11:02:44.565Z,102091.03
2022-07-29T11:05:20.572Z,102097.97
2022-07-29T11:08:20.287Z,102099.38
2022-07-29T11:11:34.880Z,102089.53
2022-07-29T11:14:02.132Z,102087.81
2022-07-29T11:17:07.018Z,102087.88
2022-07-29T11:19:35.824Z,102072.72
2022-07-29T11:22:04.685Z,102098.66
2022-07-29T11:24:34.938Z,102091.66
2022-07-29T11:27:20.892Z,102082.06
2022-07-29T11:30:03.350Z,102077.72
2022-07-29T11:32:40.484Z,102077.06
2022-07-29T11:35:37.930Z,102080.69
2022-07-29T11:38:31.668Z,102076.41
2022-07-29T11:41:30.113Z,102075.63
2022-07-29T11:44:02.959Z,102063.19
2022-07-29T11:46:51.189Z,102068.53
2022-07-29T11:49:32.660Z,102060.78
2022-07-29T11:52:04.935Z,102068.53
2022-07-29T11:57:22.600Z,102054.72
2022-07-29T11:59:49.753Z,102069.53
2022-07-29T12:02:36.550Z,102060.78
2022-07-29T12:07:52.806Z,102070.34
2022-07-29T12:10:30.461Z,102054.91
2022-07-29T12:12:58.780Z,102049.91
2022-07-29T12:15:31.500Z,102052.97
2022-07-29T12:18:20.012Z,102046.28
2022-07-29T12:21:03.529Z,102044.41
2022-07-29T12:23:35.051Z,102032.44
2022-07-29T12:26:07.499Z,102046.28
2022-07-29T12:28:39.902Z,102052.53
2022-07-29T12:31:15.191Z,102051.66
2022-07-29T12:34:02.592Z,102046.63
2022-07-29T12:36:29.988Z,102056.16
2022-07-29T12:38:57.179Z,102048.19
2022-07-29T12:41:24.303Z,102036.53
2022-07-29T12:43:56.024Z,102043.50
2022-07-29T12:46:23.523Z,102031.16
2022-07-29T12:48:56.090Z,102030.88
2022-07-29T12:51:49.847Z,102046.53
2022-07-29T12:54:17.203Z,102043.09
2022-07-29T12:56:46.050Z,102038.66
2022-07-29T12:59:22.849Z,102031.41
2022-07-29T13:01:52.997Z,102033.13
2022-07-29T13:04:32.707Z,102027.84
2022-07-29T13:07:08.238Z,102026.03
2022-07-29T13:09:44.123Z,102009.34
2022-07-29T13:12:14.010Z,102011.88
2022-07-29T13:14:47.697Z,102010.38
2022-07-29T13:17:28.719Z,102001.91
2022-07-29T13:20:13.842Z,102003.59
2022-07-29T13:22:48.287Z,102002.25
2022-07-29T13:25:15.535Z,102004.25
2022-07-29T13:27:42.598Z,102004.09
2022-07-29T13:30:11.649Z,102003.50
2022-07-29T13:32:38.824Z,102000.31
2022-07-29T13:35:09.412Z,101997.06
2022-07-29T13:37:39.450Z,101999.22
2022-07-29T13:40:09.523Z,101994.22
2022-07-29T13:42:37.207Z,101996.53
2022-07-29T13:45:07.535Z,102013.06
2022-07-29T13:47:34.912Z,102001.09
2022-07-29T13:50:03.443Z,101997.38
2022-07-29T13:52:32.495Z,102006.38
2022-07-29T13:54:59.869Z,102002.06
2022-07-29T13:57:27.013Z,102002.59
2022-07-29T13:59:54.643Z,102004.47
2022-07-29T14:02:25.379Z,102005.34
2022-07-29T14:04:55.412Z,102006.25
2022-07-29T14:07:24.257Z,102004.47
2022-07-29T14:09:51.853Z,102006.41
2022-07-29T14:12:19.054Z,101999.88
2022-07-29T14:14:47.353Z,102005.22
2022-07-29T14:17:16.049Z,102004.53
2022-07-29T14:20:03.564Z,101993.31
2022-07-29T14:22:31.015Z,102001.16
2022-07-29T14:24:58.739Z,101996.75
2022-07-29T14:27:38.231Z,101989.47
2022-07-29T14:30:07.462Z,101986.81
2022-07-29T14:32:34.497Z,101994.28
2022-07-29T14:35:01.499Z,101987.19
2022-07-29T14:37:28.553Z,101992.56
2022-07-29T14:40:08.471Z,101997.75
2022-07-29T14:42:37.009Z,101979.94
2022-07-29T14:45:06.586Z,101989.25
2022-07-29T14:47:37.373Z,101987.03
2022-07-29T14:50:05.933Z,101973.47
2022-07-29T14:52:33.296Z,101995.00
2022-07-29T14:55:00.478Z,101980.53
2022-07-29T14:57:27.694Z,101976.88
2022-07-29T14:59:56.798Z,101984.25
2022-07-29T15:02:35.471Z,101988.84
2022-07-29T15:05:10.835Z,101986.06
2022-07-29T15:07:37.875Z,101979.16
2022-07-29T15:10:05.671Z,101962.41
2022-07-29T15:12:35.492Z,101985.00
2022-07-29T15:15:03.512Z,101978.84
2022-07-29T15:17:30.646Z,101980.78
2022-07-29T15:19:57.694Z,101974.81
2022-07-29T15:22:24.704Z,101980.31
2022-07-29T15:24:51.679Z,101965.38
2022-07-29T15:27:18.724Z,101934.66
2022-07-29T15:29:45.854Z,101969.03
2022-07-29T15:32:13.208Z,101973.53
2022-07-29T15:34:40.566Z,101954.25
2022-07-29T15:37:07.883Z,101951.09
2022-07-29T15:39:35.040Z,101959.66
2022-07-29T15:42:05.945Z,101958.81
2022-07-29T15:44:33.564Z,101917.44
2022-07-29T15:47:03.685Z,101947.56
2022-07-29T15:49:47.497Z,101955.31
2022-07-29T15:52:26.262Z,101942.03
2022-07-29T15:54:56.262Z,101956.72
2022-07-29T15:57:24.668Z,101949.16
2022-07-29T15:59:52.233Z,101956.81
2022-07-29T16:02:19.782Z,101955.94
2022-07-29T16:04:47.202Z,101952.69
2022-07-29T16:07:14.510Z,101951.28
2022-07-29T16:09:43.470Z,101943.84
2022-07-29T16:12:15.394Z,101945.84
2022-07-29T16:14:44.795Z,101946.00
2022-07-29T16:17:14.818Z,101947.75
2022-07-29T16:19:44.199Z,101946.31
2022-07-29T16:22:12.114Z,101951.75
2022-07-29T16:24:39.557Z,101946.94
2022-07-29T16:27:07.515Z,101954.38
2022-07-29T16:29:34.822Z,101949.56
2022-07-29T16:32:02.102Z,101933.00
2022-07-29T16:34:29.684Z,101935.84
2022-07-29T16:36:56.674Z,101942.28
2022-07-29T16:39:23.634Z,101953.06
2022-07-29T16:41:50.824Z,101943.38
2022-07-29T16:44:17.906Z,101936.66
2022-07-29T16:46:45.752Z,101951.88
2022-07-29T16:49:19.017Z,101963.78
2022-07-29T16:51:47.907Z,101956.09
2022-07-29T16:54:15.400Z,101944.75
2022-07-29T16:56:43.146Z,101952.13
2022-07-29T16:59:15.482Z,101946.84
2022-07-29T17:01:42.448Z,101943.41
2022-07-29T17:04:09.629Z,101936.31
2022-07-29T17:06:39.654Z,101944.00
2022-07-29T17:09:09.525Z,101951.19
2022-07-29T17:11:52.726Z,101948.59
2022-07-29T17:14:26.268Z,101949.69
2022-07-29T17:17:02.510Z,101956.22
2022-07-29T17:19:35.648Z,101947.53
2022-07-29T17:22:15.581Z,101953.94
2022-07-29T17:24:46.479Z,101949.09
2022-07-29T17:27:14.578Z,101947.41
2022-07-29T17:29:41.878Z,101953.78
2022-07-29T17:32:10.593Z,101954.97
2022-07-29T17:34:39.450Z,101942.97
2022-07-29T17:37:09.528Z,101952.66
2022-07-29T17:39:41.438Z,101943.38
2022-07-29T17:42:14.485Z,101954.97
2022-07-29T17:44:41.959Z,101949.94
2022-07-29T17:47:15.748Z,101954.66
2022-07-29T17:49:45.160Z,101950.59
2022-07-29T17:52:12.233Z,101942.97
2022-07-29T17:54:39.217Z,101957.13
2022-07-29T17:57:06.222Z,101949.50
2022-07-29T17:59:33.143Z,101971.94
2022-07-29T18:02:00.326Z,101955.28
2022-07-29T18:04:28.596Z,101951.13
2022-07-29T18:06:55.946Z,101951.13
2022-07-29T18:09:23.234Z,101964.97
2022-07-29T18:11:50.913Z,101955.19
2022-07-29T18:14:17.894Z,101941.97
2022-07-29T18:16:45.101Z,101957.88
2022-07-29T18:19:12.296Z,101957.09
2022-07-29T18:21:45.684Z,101956.22
2022-07-29T18:24:25.468Z,101956.47
2022-07-29T18:26:53.388Z,101962.59
2022-07-29T18:29:21.147Z,101961.19
2022-07-29T18:31:48.692Z,101961.19
2022-07-29T18:34:17.174Z,101967.56
2022-07-29T18:36:45.770Z,101970.31
2022-07-29T18:39:20.872Z,101967.91
2022-07-29T18:41:51.976Z,101963.63
2022-07-29T18:44:22.713Z,101969.84
2022-07-29T18:46:52.031Z,101960.09
2022-07-29T18:49:19.626Z,101967.75
2022-07-29T18:51:46.934Z,101969.16
2022-07-29T18:54:15.150Z,101970.19
2022-07-29T18:56:42.178Z,101974.16
2022-07-29T18:59:10.574Z,101969.59
2022-07-29T19:01:37.981Z,101960.22
2022-07-29T19:04:06.583Z,101958.81
2022-07-29T19:06:33.933Z,101961.81
2022-07-29T19:09:01.231Z,101974.38
2022-07-29T19:11:33.024Z,101971.22
2022-07-29T19:14:00.137Z,101976.06
2022-07-29T19:16:27.447Z,101967.63
2022-07-29T19:18:54.877Z,101978.31
2022-07-29T19:21:24.057Z,101987.41
2022-07-29T19:24:00.207Z,101983.31
2022-07-29T19:26:36.345Z,101973.19
2022-07-29T19:29:04.670Z,101989.16
2022-07-29T19:31:31.796Z,101988.34
2022-07-29T19:33:58.894Z,101989.50
2022-07-29T19:36:27.277Z,101986.91
2022-07-29T19:38:54.465Z,101993.97
2022-07-29T19:41:21.762Z,101982.72
2022-07-29T19:43:51.173Z,101992.53
2022-07-29T19:46:21.387Z,101993.63
2022-07-29T19:48:49.769Z,101981.41
2022-07-29T19:51:17.765Z,101993.69
2022-07-29T19:53:47.752Z,101985.75
2022-07-29T19:56:15.859Z,101993.47
2022-07-29T19:58:44.571Z,101985.63
2022-07-29T20:01:12.987Z,101994.69
2022-07-29T20:03:40.366Z,101995.00
2022-07-29T20:06:08.427Z,101993.38
2022-07-29T20:08:35.650Z,101989.91
2022-07-29T20:11:03.799Z,101997.13
2022-07-29T20:13:33.114Z,101990.34
2022-07-29T20:16:02.095Z,101984.19
2022-07-29T20:18:29.240Z,102000.06
2022-07-29T20:20:57.471Z,102000.19
2022-07-29T20:23:24.562Z,102001.22
2022-07-29T20:25:51.716Z,101996.81
2022-07-29T20:28:18.715Z,102010.25
2022-07-29T20:30:45.917Z,101994.34
2022-07-29T20:33:14.672Z,101985.06
2022-07-29T20:35:41.767Z,101997.41
2022-07-29T20:38:08.768Z,101984.41
2022-07-29T20:40:35.976Z,101991.59
2022-07-29T20:43:03.458Z,101977.53
2022-07-29T20:45:30.425Z,102001.28
2022-07-29T20:47:58.396Z,101997.00
2022-07-29T20:50:25.469Z,102001.47
2022-07-29T20:52:53.132Z,101998.03
2022-07-29T20:55:21.101Z,102001.69
2022-07-29T20:57:48.106Z,101999.22
2022-07-29T21:00:15.402Z,101995.84
2022-07-29T21:02:42.476Z,101989.00
2022-07-29T21:05:10.043Z,101983.84
2022-07-29T21:07:37.071Z,101998.91
2022-07-29T21:10:05.158Z,101979.66
2022-07-29T21:12:33.779Z,101991.25
2022-07-29T21:15:05.242Z,101992.13
2022-07-29T21:17:38.986Z,101988.75
2022-07-29T21:20:08.549Z,101999.53
2022-07-29T21:22:35.671Z,101991.94
2022-07-29T21:27:48.430Z,101983.47
2022-07-29T21:30:16.120Z,102000.97
2022-07-29T21:32:43.317Z,101992.41
2022-07-29T21:35:22.352Z,102006.56
2022-07-29T21:37:58.975Z,102013.72
2022-07-29T21:40:26.001Z,102004.91
2022-07-29T21:42:53.040Z,102001.47
2022-07-29T21:45:20.081Z,101997.19
2022-07-29T21:47:47.071Z,102001.59
2022-07-29T21:50:14.021Z,101994.66
2022-07-29T21:52:40.995Z,102006.06
2022-07-29T21:55:09.421Z,101994.66
2022-07-29T21:57:38.397Z,101995.72
2022-07-29T22:00:10.578Z,101991.19
2022-07-29T22:02:38.458Z,101997.63
2022-07-29T22:05:05.773Z,101993.44
2022-07-29T22:07:56.241Z,101990.88
2022-07-29T22:10:19.913Z,102004.97
2022-07-29T22:12:51.162Z,102003.28
2022-07-29T22:15:18.401Z,101999.81
2022-07-29T22:17:45.424Z,101986.75
2022-07-29T22:20:13.503Z,101980.78
2022-07-29T22:22:41.074Z,102008.91
2022-07-29T22:25:09.560Z,102008.97
2022-07-29T22:27:37.033Z,102003.03
2022-07-29T22:30:08.143Z,102004.56
2022-07-29T22:32:35.258Z,102003.75
2022-07-29T22:35:02.582Z,102001.25
2022-07-29T22:37:29.716Z,102008.16
2022-07-29T22:39:57.192Z,101994.28
2022-07-29T22:42:24.423Z,102001.25
2022-07-29T22:44:51.622Z,102002.34
2022-07-29T22:47:18.732Z,101998.69
2022-07-29T22:50:06.560Z,101979.56
2022-07-29T22:52:33.654Z,101997.88
2022-07-29T22:55:00.774Z,101997.88
2022-07-29T22:57:27.787Z,101993.47
2022-07-29T22:59:54.806Z,101983.91
2022-07-29T23:02:21.799Z,101982.00
2022-07-29T23:04:48.760Z,101993.59
2022-07-29T23:07:15.792Z,101991.06
2022-07-29T23:09:42.771Z,101982.38
2022-07-29T23:12:09.984Z,101987.59
2022-07-29T23:14:36.988Z,101987.75
2022-07-29T23:17:05.317Z,101986.06
2022-07-29T23:19:32.445Z,101987.91
2022-07-29T23:21:59.470Z,101980.91
2022-07-29T23:24:26.472Z,101971.47
2022-07-29T23:26:53.893Z,101986.47
2022-07-29T23:29:20.985Z,101983.91
2022-07-29T23:31:48.447Z,101985.75
2022-07-29T23:34:15.682Z,101980.47
2022-07-29T23:36:42.751Z,101964.84
2022-07-29T23:39:13.435Z,101984.19
2022-07-29T23:41:40.707Z,101980.72
2022-07-29T23:44:07.870Z,101979.03
2022-07-29T23:46:35.064Z,101960.69
2022-07-29T23:49:02.104Z,101971.09
2022-07-29T23:51:29.361Z,101964.22
2022-07-29T23:53:56.893Z,101964.13
2022-07-29T23:56:23.956Z,101966.06
2022-07-29T23:58:50.941Z,101954.59
